sensor_id;sensor_type;location;lat;lon;timestamp;P1;durP1;ratioP1;P2;durP2;ratioP2
65477;SDS011;53678;39.642;22.430;2022-08-25T00:01:38;8.38;;;2.97;;
65477;SDS011;53678;39.642;22.430;2022-08-25T00:04:11;6.20;;;2.85;;
65477;SDS011;53678;39.642;22.430;2022-08-25T00:06:38;7.85;;;3.90;;
65477;SDS011;53678;39.642;22.430;2022-08-25T00:09:06;8.70;;;3.20;;
65477;SDS011;53678;39.642;22.430;2022-08-25T00:11:33;6.80;;;3.10;;
65477;SDS011;53678;39.642;22.430;2022-08-25T00:14:01;5.47;;;3.33;;
65477;SDS011;53678;39.642;22.430;2022-08-25T00:16:29;6.80;;;3.08;;
65477;SDS011;53678;39.642;22.430;2022-08-25T00:18:58;4.70;;;3.20;;
65477;SDS011;53678;39.642;22.430;2022-08-25T00:21:26;6.88;;;3.05;;
65477;SDS011;53678;39.642;22.430;2022-08-25T00:23:52;6.15;;;3.20;;
65477;SDS011;53678;39.642;22.430;2022-08-25T00:26:19;6.30;;;3.35;;
65477;SDS011;53678;39.642;22.430;2022-08-25T00:28:45;6.82;;;3.10;;
65477;SDS011;53678;39.642;22.430;2022-08-25T00:31:12;4.72;;;3.13;;
65477;SDS011;53678;39.642;22.430;2022-08-25T00:33:40;5.97;;;2.80;;
65477;SDS011;53678;39.642;22.430;2022-08-25T00:36:08;4.93;;;2.88;;
65477;SDS011;53678;39.642;22.430;2022-08-25T00:38:37;5.53;;;3.50;;
65477;SDS011;53678;39.642;22.430;2022-08-25T00:41:04;5.45;;;2.67;;
65477;SDS011;53678;39.642;22.430;2022-08-25T00:43:50;4.97;;;2.72;;
65477;SDS011;53678;39.642;22.430;2022-08-25T00:46:28;6.05;;;2.35;;
65477;SDS011;53678;39.642;22.430;2022-08-25T00:49:04;4.63;;;2.15;;
65477;SDS011;53678;39.642;22.430;2022-08-25T00:54:14;3.95;;;2.28;;
65477;SDS011;53678;39.642;22.430;2022-08-25T00:56:43;3.13;;;2.08;;
65477;SDS011;53678;39.642;22.430;2022-08-25T00:59:10;6.85;;;2.50;;
65477;SDS011;53678;39.642;22.430;2022-08-25T01:01:36;3.95;;;2.08;;
65477;SDS011;53678;39.642;22.430;2022-08-25T01:04:02;5.10;;;1.90;;
65477;SDS011;53678;39.642;22.430;2022-08-25T01:06:28;4.93;;;2.17;;
65477;SDS011;53678;39.642;22.430;2022-08-25T01:08:56;4.20;;;2.33;;
65477;SDS011;53678;39.642;22.430;2022-08-25T01:11:22;4.07;;;2.47;;
65477;SDS011;53678;39.642;22.430;2022-08-25T01:13:50;5.47;;;2.35;;
65477;SDS011;53678;39.642;22.430;2022-08-25T01:16:18;4.72;;;2.30;;
65477;SDS011;53678;39.642;22.430;2022-08-25T01:21:15;6.05;;;2.42;;
65477;SDS011;53678;39.642;22.430;2022-08-25T01:23:43;4.78;;;1.98;;
65477;SDS011;53678;39.642;22.430;2022-08-25T01:26:12;5.63;;;2.20;;
65477;SDS011;53678;39.642;22.430;2022-08-25T01:28:41;5.78;;;2.20;;
65477;SDS011;53678;39.642;22.430;2022-08-25T01:31:28;6.65;;;2.58;;
65477;SDS011;53678;39.642;22.430;2022-08-25T01:33:55;4.88;;;2.60;;
65477;SDS011;53678;39.642;22.430;2022-08-25T01:36:23;6.82;;;2.83;;
65477;SDS011;53678;39.642;22.430;2022-08-25T01:38:50;4.10;;;2.50;;
65477;SDS011;53678;39.642;22.430;2022-08-25T01:41:20;5.32;;;2.30;;
65477;SDS011;53678;39.642;22.430;2022-08-25T01:44:10;3.42;;;2.33;;
65477;SDS011;53678;39.642;22.430;2022-08-25T01:46:35;3.40;;;2.30;;
65477;SDS011;53678;39.642;22.430;2022-08-25T01:49:02;5.93;;;2.83;;
65477;SDS011;53678;39.642;22.430;2022-08-25T01:51:29;4.43;;;2.63;;
65477;SDS011;53678;39.642;22.430;2022-08-25T01:54:02;4.97;;;2.17;;
65477;SDS011;53678;39.642;22.430;2022-08-25T01:56:28;3.25;;;2.08;;
65477;SDS011;53678;39.642;22.430;2022-08-25T01:58:55;6.82;;;2.58;;
65477;SDS011;53678;39.642;22.430;2022-08-25T02:01:22;4.32;;;2.78;;
65477;SDS011;53678;39.642;22.430;2022-08-25T02:03:50;4.68;;;2.83;;
65477;SDS011;53678;39.642;22.430;2022-08-25T02:06:19;4.65;;;2.85;;
65477;SDS011;53678;39.642;22.430;2022-08-25T02:08:52;5.80;;;3.08;;
65477;SDS011;53678;39.642;22.430;2022-08-25T02:11:22;5.68;;;3.45;;
65477;SDS011;53678;39.642;22.430;2022-08-25T02:13:48;6.80;;;3.00;;
65477;SDS011;53678;39.642;22.430;2022-08-25T02:16:18;5.45;;;2.92;;
65477;SDS011;53678;39.642;22.430;2022-08-25T02:18:47;6.80;;;3.75;;
65477;SDS011;53678;39.642;22.430;2022-08-25T02:21:13;8.25;;;4.32;;
65477;SDS011;53678;39.642;22.430;2022-08-25T02:23:40;5.57;;;3.90;;
65477;SDS011;53678;39.642;22.430;2022-08-25T02:26:06;4.93;;;3.90;;
65477;SDS011;53678;39.642;22.430;2022-08-25T02:28:33;7.70;;;4.30;;
65477;SDS011;53678;39.642;22.430;2022-08-25T02:30:59;7.60;;;4.05;;
65477;SDS011;53678;39.642;22.430;2022-08-25T02:33:25;6.55;;;3.88;;
65477;SDS011;53678;39.642;22.430;2022-08-25T02:35:51;8.48;;;4.28;;
65477;SDS011;53678;39.642;22.430;2022-08-25T02:38:17;6.95;;;4.22;;
65477;SDS011;53678;39.642;22.430;2022-08-25T02:40:42;7.70;;;4.28;;
65477;SDS011;53678;39.642;22.430;2022-08-25T02:43:08;7.22;;;4.47;;
65477;SDS011;53678;39.642;22.430;2022-08-25T02:45:34;7.32;;;4.15;;
65477;SDS011;53678;39.642;22.430;2022-08-25T02:48:01;9.27;;;5.30;;
65477;SDS011;53678;39.642;22.430;2022-08-25T02:50:27;13.20;;;4.22;;
65477;SDS011;53678;39.642;22.430;2022-08-25T02:52:53;8.45;;;4.65;;
65477;SDS011;53678;39.642;22.430;2022-08-25T02:55:19;8.02;;;4.60;;
65477;SDS011;53678;39.642;22.430;2022-08-25T02:57:46;6.60;;;4.07;;
65477;SDS011;53678;39.642;22.430;2022-08-25T03:00:13;10.02;;;4.97;;
65477;SDS011;53678;39.642;22.430;2022-08-25T03:02:41;7.07;;;4.07;;
65477;SDS011;53678;39.642;22.430;2022-08-25T03:05:08;6.57;;;4.50;;
65477;SDS011;53678;39.642;22.430;2022-08-25T03:07:36;7.05;;;4.43;;
65477;SDS011;53678;39.642;22.430;2022-08-25T03:10:06;6.53;;;4.50;;
65477;SDS011;53678;39.642;22.430;2022-08-25T03:12:39;7.72;;;4.18;;
65477;SDS011;53678;39.642;22.430;2022-08-25T03:15:06;6.78;;;4.30;;
65477;SDS011;53678;39.642;22.430;2022-08-25T03:17:34;7.63;;;4.05;;
65477;SDS011;53678;39.642;22.430;2022-08-25T03:20:00;6.75;;;4.10;;
65477;SDS011;53678;39.642;22.430;2022-08-25T03:22:26;6.68;;;3.90;;
65477;SDS011;53678;39.642;22.430;2022-08-25T03:24:51;5.68;;;4.00;;
65477;SDS011;53678;39.642;22.430;2022-08-25T03:27:37;6.38;;;3.78;;
65477;SDS011;53678;39.642;22.430;2022-08-25T03:30:03;6.45;;;4.00;;
65477;SDS011;53678;39.642;22.430;2022-08-25T03:32:30;6.78;;;4.40;;
65477;SDS011;53678;39.642;22.430;2022-08-25T03:34:56;6.10;;;4.30;;
65477;SDS011;53678;39.642;22.430;2022-08-25T03:37:21;5.28;;;3.80;;
65477;SDS011;53678;39.642;22.430;2022-08-25T03:39:47;5.63;;;3.85;;
65477;SDS011;53678;39.642;22.430;2022-08-25T03:42:13;6.05;;;3.92;;
65477;SDS011;53678;39.642;22.430;2022-08-25T03:44:39;6.13;;;3.80;;
65477;SDS011;53678;39.642;22.430;2022-08-25T03:47:05;5.57;;;4.10;;
65477;SDS011;53678;39.642;22.430;2022-08-25T03:49:31;5.97;;;4.25;;
65477;SDS011;53678;39.642;22.430;2022-08-25T03:51:57;5.47;;;4.28;;
65477;SDS011;53678;39.642;22.430;2022-08-25T03:54:24;6.05;;;3.55;;
65477;SDS011;53678;39.642;22.430;2022-08-25T03:56:50;8.27;;;4.30;;
65477;SDS011;53678;39.642;22.430;2022-08-25T03:59:16;8.27;;;4.30;;
65477;SDS011;53678;39.642;22.430;2022-08-25T04:01:43;7.40;;;4.70;;
65477;SDS011;53678;39.642;22.430;2022-08-25T04:04:11;7.57;;;4.95;;
65477;SDS011;53678;39.642;22.430;2022-08-25T04:06:39;8.57;;;4.75;;
65477;SDS011;53678;39.642;22.430;2022-08-25T04:09:06;7.70;;;4.32;;
65477;SDS011;53678;39.642;22.430;2022-08-25T04:11:32;6.55;;;4.45;;
65477;SDS011;53678;39.642;22.430;2022-08-25T04:13:58;7.50;;;4.60;;
65477;SDS011;53678;39.642;22.430;2022-08-25T04:16:26;6.18;;;4.80;;
65477;SDS011;53678;39.642;22.430;2022-08-25T04:18:55;6.97;;;4.20;;
65477;SDS011;53678;39.642;22.430;2022-08-25T04:21:23;5.47;;;4.20;;
65477;SDS011;53678;39.642;22.430;2022-08-25T04:23:50;5.85;;;4.43;;
65477;SDS011;53678;39.642;22.430;2022-08-25T04:28:45;7.60;;;4.40;;
65477;SDS011;53678;39.642;22.430;2022-08-25T04:31:12;6.55;;;4.55;;
65477;SDS011;53678;39.642;22.430;2022-08-25T04:33:40;11.00;;;4.97;;
65477;SDS011;53678;39.642;22.430;2022-08-25T04:36:06;8.55;;;4.75;;
65477;SDS011;53678;39.642;22.430;2022-08-25T04:38:33;7.43;;;5.15;;
65477;SDS011;53678;39.642;22.430;2022-08-25T04:41:00;7.43;;;5.32;;
65477;SDS011;53678;39.642;22.430;2022-08-25T04:43:28;9.35;;;5.28;;
65477;SDS011;53678;39.642;22.430;2022-08-25T04:45:55;6.25;;;4.60;;
65477;SDS011;53678;39.642;22.430;2022-08-25T04:48:21;5.88;;;3.78;;
65477;SDS011;53678;39.642;22.430;2022-08-25T04:50:48;6.35;;;4.47;;
65477;SDS011;53678;39.642;22.430;2022-08-25T04:53:14;13.38;;;4.85;;
65477;SDS011;53678;39.642;22.430;2022-08-25T04:55:41;6.35;;;4.53;;
65477;SDS011;53678;39.642;22.430;2022-08-25T04:58:08;5.20;;;3.95;;
65477;SDS011;53678;39.642;22.430;2022-08-25T05:00:34;6.90;;;4.82;;
65477;SDS011;53678;39.642;22.430;2022-08-25T05:03:02;6.35;;;3.90;;
65477;SDS011;53678;39.642;22.430;2022-08-25T05:05:28;12.35;;;4.82;;
65477;SDS011;53678;39.642;22.430;2022-08-25T05:07:55;16.95;;;5.45;;
65477;SDS011;53678;39.642;22.430;2022-08-25T05:10:21;16.33;;;5.50;;
65477;SDS011;53678;39.642;22.430;2022-08-25T05:12:47;28.67;;;6.07;;
65477;SDS011;53678;39.642;22.430;2022-08-25T05:15:13;27.88;;;5.70;;
65477;SDS011;53678;39.642;22.430;2022-08-25T05:17:57;19.42;;;5.30;;
65477;SDS011;53678;39.642;22.430;2022-08-25T05:20:24;22.08;;;5.30;;
65477;SDS011;53678;39.642;22.430;2022-08-25T05:22:50;27.70;;;6.07;;
65477;SDS011;53678;39.642;22.430;2022-08-25T05:25:16;32.17;;;6.65;;
65477;SDS011;53678;39.642;22.430;2022-08-25T05:27:42;37.00;;;6.70;;
65477;SDS011;53678;39.642;22.430;2022-08-25T05:30:09;13.20;;;4.40;;
65477;SDS011;53678;39.642;22.430;2022-08-25T05:32:36;8.70;;;3.50;;
65477;SDS011;53678;39.642;22.430;2022-08-25T05:35:03;8.35;;;3.30;;
65477;SDS011;53678;39.642;22.430;2022-08-25T05:37:30;7.57;;;3.10;;
65477;SDS011;53678;39.642;22.430;2022-08-25T05:39:56;15.35;;;4.35;;
65477;SDS011;53678;39.642;22.430;2022-08-25T05:42:23;31.40;;;5.88;;
65477;SDS011;53678;39.642;22.430;2022-08-25T05:44:49;17.38;;;4.75;;
65477;SDS011;53678;39.642;22.430;2022-08-25T05:47:15;25.75;;;4.72;;
65477;SDS011;53678;39.642;22.430;2022-08-25T05:49:41;15.40;;;5.03;;
65477;SDS011;53678;39.642;22.430;2022-08-25T05:52:06;14.20;;;4.18;;
65477;SDS011;53678;39.642;22.430;2022-08-25T05:54:32;7.85;;;3.95;;
65477;SDS011;53678;39.642;22.430;2022-08-25T05:56:58;8.65;;;3.95;;
65477;SDS011;53678;39.642;22.430;2022-08-25T05:59:25;6.70;;;3.53;;
65477;SDS011;53678;39.642;22.430;2022-08-25T06:01:51;8.52;;;3.83;;
65477;SDS011;53678;39.642;22.430;2022-08-25T06:04:35;8.18;;;3.20;;
65477;SDS011;53678;39.642;22.430;2022-08-25T06:07:01;16.35;;;4.82;;
65477;SDS011;53678;39.642;22.430;2022-08-25T06:09:27;9.57;;;3.80;;
65477;SDS011;53678;39.642;22.430;2022-08-25T06:11:53;11.45;;;5.25;;
65477;SDS011;53678;39.642;22.430;2022-08-25T06:14:19;7.70;;;4.25;;
65477;SDS011;53678;39.642;22.430;2022-08-25T06:16:45;8.52;;;4.57;;
65477;SDS011;53678;39.642;22.430;2022-08-25T06:19:12;8.23;;;4.65;;
65477;SDS011;53678;39.642;22.430;2022-08-25T06:21:39;8.70;;;3.92;;
65477;SDS011;53678;39.642;22.430;2022-08-25T06:24:05;6.00;;;4.40;;
65477;SDS011;53678;39.642;22.430;2022-08-25T06:26:32;7.28;;;3.42;;
65477;SDS011;53678;39.642;22.430;2022-08-25T06:28:59;9.55;;;3.97;;
65477;SDS011;53678;39.642;22.430;2022-08-25T06:31:24;14.50;;;4.57;;
65477;SDS011;53678;39.642;22.430;2022-08-25T06:33:50;13.00;;;4.65;;
65477;SDS011;53678;39.642;22.430;2022-08-25T06:36:17;10.27;;;4.72;;
65477;SDS011;53678;39.642;22.430;2022-08-25T06:38:44;9.50;;;4.20;;
65477;SDS011;53678;39.642;22.430;2022-08-25T06:41:10;7.15;;;4.43;;
65477;SDS011;53678;39.642;22.430;2022-08-25T06:43:37;8.63;;;4.45;;
65477;SDS011;53678;39.642;22.430;2022-08-25T06:46:11;7.85;;;3.78;;
65477;SDS011;53678;39.642;22.430;2022-08-25T06:48:39;6.55;;;3.60;;
65477;SDS011;53678;39.642;22.430;2022-08-25T06:51:09;6.82;;;3.28;;
65477;SDS011;53678;39.642;22.430;2022-08-25T06:53:37;6.88;;;2.92;;
65477;SDS011;53678;39.642;22.430;2022-08-25T06:56:03;4.30;;;2.78;;
65477;SDS011;53678;39.642;22.430;2022-08-25T06:58:30;7.35;;;3.45;;
65477;SDS011;53678;39.642;22.430;2022-08-25T07:03:37;5.78;;;3.40;;
65477;SDS011;53678;39.642;22.430;2022-08-25T07:06:04;3.58;;;2.85;;
65477;SDS011;53678;39.642;22.430;2022-08-25T07:08:30;6.68;;;3.15;;
65477;SDS011;53678;39.642;22.430;2022-08-25T07:10:56;3.65;;;2.53;;
65477;SDS011;53678;39.642;22.430;2022-08-25T07:13:23;9.52;;;2.80;;
65477;SDS011;53678;39.642;22.430;2022-08-25T07:15:52;5.03;;;2.38;;
65477;SDS011;53678;39.642;22.430;2022-08-25T07:18:18;4.65;;;2.63;;
65477;SDS011;53678;39.642;22.430;2022-08-25T07:20:44;6.60;;;3.50;;
65477;SDS011;53678;39.642;22.430;2022-08-25T07:23:10;4.82;;;2.88;;
65477;SDS011;53678;39.642;22.430;2022-08-25T07:25:36;4.85;;;3.22;;
65477;SDS011;53678;39.642;22.430;2022-08-25T07:28:02;7.15;;;3.40;;
65477;SDS011;53678;39.642;22.430;2022-08-25T07:30:29;5.88;;;2.92;;
65477;SDS011;53678;39.642;22.430;2022-08-25T07:32:55;5.90;;;2.78;;
65477;SDS011;53678;39.642;22.430;2022-08-25T07:35:22;5.78;;;2.75;;
65477;SDS011;53678;39.642;22.430;2022-08-25T07:37:52;4.28;;;2.47;;
65477;SDS011;53678;39.642;22.430;2022-08-25T07:40:24;8.75;;;3.30;;
65477;SDS011;53678;39.642;22.430;2022-08-25T07:42:54;6.90;;;2.95;;
65477;SDS011;53678;39.642;22.430;2022-08-25T07:45:22;6.00;;;3.08;;
65477;SDS011;53678;39.642;22.430;2022-08-25T07:50:24;8.23;;;2.90;;
65477;SDS011;53678;39.642;22.430;2022-08-25T07:52:50;8.82;;;3.38;;
65477;SDS011;53678;39.642;22.430;2022-08-25T07:55:17;7.07;;;2.88;;
65477;SDS011;53678;39.642;22.430;2022-08-25T07:57:43;10.00;;;3.20;;
65477;SDS011;53678;39.642;22.430;2022-08-25T08:00:09;8.43;;;3.45;;
65477;SDS011;53678;39.642;22.430;2022-08-25T08:02:38;6.75;;;3.25;;
65477;SDS011;53678;39.642;22.430;2022-08-25T08:05:06;5.78;;;3.13;;
65477;SDS011;53678;39.642;22.430;2022-08-25T08:07:32;5.93;;;2.75;;
65477;SDS011;53678;39.642;22.430;2022-08-25T08:09:57;7.90;;;2.70;;
65477;SDS011;53678;39.642;22.430;2022-08-25T08:12:23;6.93;;;2.90;;
65477;SDS011;53678;39.642;22.430;2022-08-25T08:14:51;10.85;;;3.47;;
65477;SDS011;53678;39.642;22.430;2022-08-25T08:17:18;8.68;;;2.90;;
65477;SDS011;53678;39.642;22.430;2022-08-25T08:19:44;5.07;;;2.63;;
65477;SDS011;53678;39.642;22.430;2022-08-25T08:22:11;9.82;;;6.90;;
65477;SDS011;53678;39.642;22.430;2022-08-25T08:24:40;8.35;;;3.67;;
65477;SDS011;53678;39.642;22.430;2022-08-25T08:27:08;4.03;;;2.72;;
65477;SDS011;53678;39.642;22.430;2022-08-25T08:29:38;7.20;;;2.92;;
65477;SDS011;53678;39.642;22.430;2022-08-25T08:32:05;6.60;;;2.90;;
65477;SDS011;53678;39.642;22.430;2022-08-25T08:34:33;4.35;;;3.00;;
65477;SDS011;53678;39.642;22.430;2022-08-25T08:36:59;4.03;;;2.88;;
65477;SDS011;53678;39.642;22.430;2022-08-25T08:39:26;4.28;;;2.70;;
65477;SDS011;53678;39.642;22.430;2022-08-25T08:45:07;4.75;;;2.97;;
65477;SDS011;53678;39.642;22.430;2022-08-25T08:56:08;6.55;;;3.15;;
65477;SDS011;53678;39.642;22.430;2022-08-25T08:58:49;6.03;;;2.88;;
65477;SDS011;53678;39.642;22.430;2022-08-25T09:01:54;5.22;;;3.33;;
65477;SDS011;53678;39.642;22.430;2022-08-25T09:04:40;5.18;;;3.17;;
65477;SDS011;53678;39.642;22.430;2022-08-25T09:07:21;4.95;;;2.80;;
65477;SDS011;53678;39.642;22.430;2022-08-25T09:09:52;5.60;;;2.88;;
65477;SDS011;53678;39.642;22.430;2022-08-25T09:15:13;5.20;;;2.78;;
65477;SDS011;53678;39.642;22.430;2022-08-25T09:17:49;9.18;;;3.13;;
65477;SDS011;53678;39.642;22.430;2022-08-25T09:26:08;7.30;;;3.40;;
65477;SDS011;53678;39.642;22.430;2022-08-25T09:28:53;6.75;;;2.80;;
65477;SDS011;53678;39.642;22.430;2022-08-25T09:31:30;5.25;;;2.83;;
65477;SDS011;53678;39.642;22.430;2022-08-25T09:34:00;11.38;;;3.80;;
65477;SDS011;53678;39.642;22.430;2022-08-25T09:36:28;8.27;;;3.22;;
65477;SDS011;53678;39.642;22.430;2022-08-25T09:38:55;5.75;;;2.83;;
65477;SDS011;53678;39.642;22.430;2022-08-25T09:41:41;5.53;;;2.80;;
65477;SDS011;53678;39.642;22.430;2022-08-25T09:44:17;6.22;;;2.92;;
65477;SDS011;53678;39.642;22.430;2022-08-25T09:47:18;4.93;;;3.13;;
65477;SDS011;53678;39.642;22.430;2022-08-25T09:54:54;10.55;;;3.92;;
65477;SDS011;53678;39.642;22.430;2022-08-25T10:00:19;5.55;;;3.28;;
65477;SDS011;53678;39.642;22.430;2022-08-25T10:05:37;6.25;;;3.13;;
65477;SDS011;53678;39.642;22.430;2022-08-25T10:08:25;9.82;;;4.30;;
65477;SDS011;53678;39.642;22.430;2022-08-25T10:10:53;11.32;;;4.43;;
65477;SDS011;53678;39.642;22.430;2022-08-25T10:13:30;10.40;;;4.80;;
65477;SDS011;53678;39.642;22.430;2022-08-25T10:16:19;8.40;;;3.15;;
65477;SDS011;53678;39.642;22.430;2022-08-25T10:19:00;12.25;;;4.53;;
65477;SDS011;53678;39.642;22.430;2022-08-25T10:21:32;10.90;;;4.00;;
65477;SDS011;53678;39.642;22.430;2022-08-25T10:23:59;9.38;;;3.60;;
65477;SDS011;53678;39.642;22.430;2022-08-25T10:26:36;9.90;;;4.70;;
65477;SDS011;53678;39.642;22.430;2022-08-25T10:29:32;9.00;;;5.22;;
65477;SDS011;53678;39.642;22.430;2022-08-25T10:32:18;7.13;;;3.92;;
65477;SDS011;53678;39.642;22.430;2022-08-25T10:34:49;5.85;;;4.50;;
65477;SDS011;53678;39.642;22.430;2022-08-25T10:40:20;9.23;;;5.07;;
65477;SDS011;53678;39.642;22.430;2022-08-25T10:45:52;11.27;;;5.82;;
65477;SDS011;53678;39.642;22.430;2022-08-25T10:48:41;9.60;;;5.57;;
65477;SDS011;53678;39.642;22.430;2022-08-25T10:54:19;6.75;;;4.57;;
65477;SDS011;53678;39.642;22.430;2022-08-25T10:57:11;8.38;;;4.95;;
65477;SDS011;53678;39.642;22.430;2022-08-25T11:08:07;7.93;;;5.15;;
65477;SDS011;53678;39.642;22.430;2022-08-25T11:10:42;7.72;;;5.10;;
65477;SDS011;53678;39.642;22.430;2022-08-25T11:13:15;10.17;;;5.00;;
65477;SDS011;53678;39.642;22.430;2022-08-25T11:18:46;6.88;;;4.63;;
65477;SDS011;53678;39.642;22.430;2022-08-25T11:21:24;6.63;;;4.50;;
65477;SDS011;53678;39.642;22.430;2022-08-25T11:24:01;9.02;;;4.38;;
65477;SDS011;53678;39.642;22.430;2022-08-25T11:26:45;8.88;;;4.05;;
65477;SDS011;53678;39.642;22.430;2022-08-25T11:29:18;10.50;;;4.55;;
65477;SDS011;53678;39.642;22.430;2022-08-25T11:31:48;13.18;;;4.60;;
65477;SDS011;53678;39.642;22.430;2022-08-25T11:34:16;8.57;;;3.95;;
65477;SDS011;53678;39.642;22.430;2022-08-25T11:37:04;8.80;;;4.13;;
65477;SDS011;53678;39.642;22.430;2022-08-25T11:50:04;12.13;;;4.40;;
65477;SDS011;53678;39.642;22.430;2022-08-25T11:52:51;12.48;;;4.07;;
65477;SDS011;53678;39.642;22.430;2022-08-25T11:58:13;9.20;;;4.20;;
65477;SDS011;53678;39.642;22.430;2022-08-25T12:00:59;9.85;;;4.88;;
65477;SDS011;53678;39.642;22.430;2022-08-25T12:30:19;10.85;;;3.85;;
65477;SDS011;53678;39.642;22.430;2022-08-25T12:38:15;5.25;;;3.30;;
65477;SDS011;53678;39.642;22.430;2022-08-25T12:41:02;10.25;;;3.95;;
65477;SDS011;53678;39.642;22.430;2022-08-25T12:43:40;9.48;;;3.88;;
65477;SDS011;53678;39.642;22.430;2022-08-25T12:48:53;5.35;;;3.20;;
65477;SDS011;53678;39.642;22.430;2022-08-25T12:51:20;5.88;;;3.15;;
65477;SDS011;53678;39.642;22.430;2022-08-25T12:53:59;8.65;;;3.58;;
65477;SDS011;53678;39.642;22.430;2022-08-25T12:56:46;8.50;;;3.30;;
65477;SDS011;53678;39.642;22.430;2022-08-25T12:59:30;6.13;;;3.60;;
65477;SDS011;53678;39.642;22.430;2022-08-25T13:10:40;6.03;;;3.42;;
65477;SDS011;53678;39.642;22.430;2022-08-25T13:16:08;5.60;;;3.67;;
65477;SDS011;53678;39.642;22.430;2022-08-25T13:18:44;7.15;;;3.78;;
65477;SDS011;53678;39.642;22.430;2022-08-25T13:23:47;8.32;;;3.95;;
65477;SDS011;53678;39.642;22.430;2022-08-25T13:26:25;10.40;;;4.40;;
65477;SDS011;53678;39.642;22.430;2022-08-25T13:31:24;7.90;;;4.90;;
65477;SDS011;53678;39.642;22.430;2022-08-25T13:33:56;6.50;;;4.05;;
65477;SDS011;53678;39.642;22.430;2022-08-25T13:36:27;8.50;;;3.92;;
65477;SDS011;53678;39.642;22.430;2022-08-25T13:39:15;7.15;;;4.00;;
65477;SDS011;53678;39.642;22.430;2022-08-25T13:41:47;8.30;;;3.95;;
65477;SDS011;53678;39.642;22.430;2022-08-25T13:44:16;10.38;;;3.65;;
65477;SDS011;53678;39.642;22.430;2022-08-25T13:46:44;6.30;;;4.07;;
65477;SDS011;53678;39.642;22.430;2022-08-25T13:49:11;9.85;;;4.10;;
65477;SDS011;53678;39.642;22.430;2022-08-25T13:51:53;8.45;;;4.05;;
65477;SDS011;53678;39.642;22.430;2022-08-25T13:54:36;10.40;;;4.15;;
65477;SDS011;53678;39.642;22.430;2022-08-25T13:57:26;7.22;;;3.70;;
65477;SDS011;53678;39.642;22.430;2022-08-25T13:59:55;14.55;;;5.50;;
65477;SDS011;53678;39.642;22.430;2022-08-25T14:02:42;12.23;;;4.65;;
65477;SDS011;53678;39.642;22.430;2022-08-25T14:07:35;10.60;;;4.53;;
65477;SDS011;53678;39.642;22.430;2022-08-25T14:10:06;9.90;;;4.50;;
65477;SDS011;53678;39.642;22.430;2022-08-25T14:15:01;8.75;;;3.78;;
65477;SDS011;53678;39.642;22.430;2022-08-25T14:17:35;5.97;;;3.55;;
65477;SDS011;53678;39.642;22.430;2022-08-25T14:20:04;7.43;;;3.63;;
65477;SDS011;53678;39.642;22.430;2022-08-25T14:22:31;9.18;;;3.83;;
65477;SDS011;53678;39.642;22.430;2022-08-25T14:24:57;9.13;;;3.72;;
65477;SDS011;53678;39.642;22.430;2022-08-25T14:27:23;9.63;;;3.50;;
65477;SDS011;53678;39.642;22.430;2022-08-25T14:29:48;5.43;;;3.42;;
65477;SDS011;53678;39.642;22.430;2022-08-25T14:32:15;7.20;;;3.58;;
65477;SDS011;53678;39.642;22.430;2022-08-25T14:34:41;5.82;;;3.50;;
65477;SDS011;53678;39.642;22.430;2022-08-25T14:37:12;6.55;;;4.20;;
65477;SDS011;53678;39.642;22.430;2022-08-25T14:39:43;9.82;;;3.95;;
65477;SDS011;53678;39.642;22.430;2022-08-25T14:42:09;6.10;;;3.90;;
65477;SDS011;53678;39.642;22.430;2022-08-25T14:44:36;12.02;;;4.53;;
65477;SDS011;53678;39.642;22.430;2022-08-25T14:47:02;9.38;;;4.43;;
65477;SDS011;53678;39.642;22.430;2022-08-25T14:49:33;8.82;;;4.20;;
65477;SDS011;53678;39.642;22.430;2022-08-25T14:52:25;11.02;;;4.75;;
65477;SDS011;53678;39.642;22.430;2022-08-25T14:54:53;9.45;;;3.88;;
65477;SDS011;53678;39.642;22.430;2022-08-25T14:57:21;10.77;;;4.78;;
65477;SDS011;53678;39.642;22.430;2022-08-25T14:59:48;7.72;;;4.22;;
65477;SDS011;53678;39.642;22.430;2022-08-25T15:02:14;6.10;;;3.90;;
65477;SDS011;53678;39.642;22.430;2022-08-25T15:04:47;8.05;;;4.20;;
65477;SDS011;53678;39.642;22.430;2022-08-25T15:07:16;7.03;;;4.00;;
65477;SDS011;53678;39.642;22.430;2022-08-25T15:10:01;9.05;;;4.28;;
65477;SDS011;53678;39.642;22.430;2022-08-25T15:12:28;6.45;;;3.53;;
65477;SDS011;53678;39.642;22.430;2022-08-25T15:14:55;7.25;;;3.80;;
65477;SDS011;53678;39.642;22.430;2022-08-25T15:17:22;9.57;;;3.65;;
65477;SDS011;53678;39.642;22.430;2022-08-25T15:19:48;9.20;;;3.60;;
65477;SDS011;53678;39.642;22.430;2022-08-25T15:22:14;6.30;;;3.50;;
65477;SDS011;53678;39.642;22.430;2022-08-25T15:24:40;5.75;;;3.35;;
65477;SDS011;53678;39.642;22.430;2022-08-25T15:27:06;6.05;;;3.33;;
65477;SDS011;53678;39.642;22.430;2022-08-25T15:29:33;11.07;;;3.40;;
65477;SDS011;53678;39.642;22.430;2022-08-25T15:32:00;10.10;;;4.20;;
65477;SDS011;53678;39.642;22.430;2022-08-25T15:34:28;8.85;;;4.60;;
65477;SDS011;53678;39.642;22.430;2022-08-25T15:36:55;7.28;;;3.97;;
65477;SDS011;53678;39.642;22.430;2022-08-25T15:39:22;9.18;;;3.45;;
65477;SDS011;53678;39.642;22.430;2022-08-25T15:41:48;8.68;;;3.33;;
65477;SDS011;53678;39.642;22.430;2022-08-25T15:44:16;10.00;;;3.80;;
65477;SDS011;53678;39.642;22.430;2022-08-25T15:46:42;8.27;;;3.83;;
65477;SDS011;53678;39.642;22.430;2022-08-25T15:49:09;9.68;;;3.70;;
65477;SDS011;53678;39.642;22.430;2022-08-25T15:51:34;9.43;;;4.03;;
65477;SDS011;53678;39.642;22.430;2022-08-25T15:54:01;12.18;;;4.00;;
65477;SDS011;53678;39.642;22.430;2022-08-25T15:56:26;10.27;;;3.88;;
65477;SDS011;53678;39.642;22.430;2022-08-25T15:58:53;9.70;;;4.47;;
65477;SDS011;53678;39.642;22.430;2022-08-25T16:01:22;9.27;;;3.58;;
65477;SDS011;53678;39.642;22.430;2022-08-25T16:03:49;7.50;;;3.97;;
65477;SDS011;53678;39.642;22.430;2022-08-25T16:06:15;7.97;;;4.07;;
65477;SDS011;53678;39.642;22.430;2022-08-25T16:08:42;7.15;;;3.70;;
65477;SDS011;53678;39.642;22.430;2022-08-25T16:11:19;13.70;;;4.72;;
65477;SDS011;53678;39.642;22.430;2022-08-25T16:13:47;10.40;;;3.63;;
65477;SDS011;53678;39.642;22.430;2022-08-25T16:16:14;7.90;;;3.80;;
65477;SDS011;53678;39.642;22.430;2022-08-25T16:18:41;7.80;;;3.58;;
65477;SDS011;53678;39.642;22.430;2022-08-25T16:21:09;9.68;;;4.80;;
65477;SDS011;53678;39.642;22.430;2022-08-25T16:23:37;9.50;;;4.00;;
65477;SDS011;53678;39.642;22.430;2022-08-25T16:26:04;10.82;;;4.63;;
65477;SDS011;53678;39.642;22.430;2022-08-25T16:28:34;8.68;;;3.80;;
65477;SDS011;53678;39.642;22.430;2022-08-25T16:31:00;11.00;;;4.53;;
65477;SDS011;53678;39.642;22.430;2022-08-25T16:33:27;7.88;;;4.80;;
65477;SDS011;53678;39.642;22.430;2022-08-25T16:35:52;8.95;;;4.50;;
65477;SDS011;53678;39.642;22.430;2022-08-25T16:38:42;10.48;;;4.07;;
65477;SDS011;53678;39.642;22.430;2022-08-25T16:41:14;7.93;;;4.82;;
65477;SDS011;53678;39.642;22.430;2022-08-25T16:43:43;14.05;;;4.90;;
65477;SDS011;53678;39.642;22.430;2022-08-25T16:46:10;12.50;;;5.30;;
65477;SDS011;53678;39.642;22.430;2022-08-25T16:48:37;13.13;;;5.72;;
65477;SDS011;53678;39.642;22.430;2022-08-25T16:51:15;11.77;;;5.35;;
65477;SDS011;53678;39.642;22.430;2022-08-25T16:53:58;15.50;;;5.63;;
65477;SDS011;53678;39.642;22.430;2022-08-25T16:56:43;13.75;;;5.68;;
65477;SDS011;53678;39.642;22.430;2022-08-25T16:59:09;11.90;;;5.30;;
65477;SDS011;53678;39.642;22.430;2022-08-25T17:01:37;10.88;;;4.85;;